createdAt,value
2023-03-17T00:02:09.961Z,3.15
2023-03-17T00:04:38.132Z,3.13
2023-03-17T00:07:06.486Z,3.35
2023-03-17T00:09:33.835Z,3.28
2023-03-17T00:12:01.199Z,3.80
2023-03-17T00:14:28.288Z,3.38
2023-03-17T00:16:55.695Z,3.97
2023-03-17T00:19:33.962Z,2.90
2023-03-17T00:22:01.816Z,3.85
2023-03-17T00:24:29.241Z,3.88
2023-03-17T00:26:56.324Z,5.53
2023-03-17T00:29:24.155Z,4.57
2023-03-17T00:31:51.571Z,3.20
2023-03-17T00:34:19.546Z,4.30
2023-03-17T00:36:47.373Z,4.75
2023-03-17T00:41:41.158Z,4.00
2023-03-17T00:44:08.255Z,4.30
2023-03-17T00:46:38.637Z,3.70
2023-03-17T00:49:19.946Z,4.25
2023-03-17T00:51:47.626Z,3.88
2023-03-17T00:54:15.550Z,4.20
2023-03-17T00:56:43.841Z,4.07
2023-03-17T00:59:19.568Z,4.32
2023-03-17T01:01:46.792Z,4.65
2023-03-17T01:04:14.481Z,4.40
2023-03-17T01:06:42.672Z,4.65
2023-03-17T01:09:12.846Z,4.78
2023-03-17T01:11:40.188Z,5.03
2023-03-17T01:14:07.312Z,4.82
2023-03-17T01:16:34.439Z,5.10
2023-03-17T01:19:01.627Z,4.80
2023-03-17T01:21:28.736Z,5.18
2023-03-17T01:23:56.344Z,4.93
2023-03-17T01:26:25.935Z,5.82
2023-03-17T01:28:53.124Z,6.05
2023-03-17T01:31:20.695Z,5.82
2023-03-17T01:33:47.911Z,5.68
2023-03-17T01:36:15.744Z,5.45
2023-03-17T01:38:43.148Z,5.80
2023-03-17T01:41:10.656Z,5.97
2023-03-17T01:43:38.651Z,5.82
2023-03-17T01:46:24.782Z,5.15
2023-03-17T01:48:56.561Z,5.82
2023-03-17T01:51:27.953Z,5.75
2023-03-17T01:53:55.509Z,5.80
2023-03-17T01:56:23.302Z,5.30
2023-03-17T01:58:52.564Z,6.07
2023-03-17T02:01:21.380Z,6.13
2023-03-17T02:03:48.853Z,5.80
2023-03-17T02:06:16.135Z,5.78
2023-03-17T02:08:44.135Z,5.10
2023-03-17T02:11:11.197Z,4.95
2023-03-17T02:13:38.550Z,6.07
2023-03-17T02:16:05.798Z,6.50
2023-03-17T02:18:34.260Z,5.55
2023-03-17T02:21:20.219Z,5.47
2023-03-17T02:23:47.519Z,4.95
2023-03-17T02:26:14.909Z,5.97
2023-03-17T02:28:46.025Z,6.28
2023-03-17T02:31:13.250Z,5.60
2023-03-17T02:33:40.630Z,5.43
2023-03-17T02:36:09.476Z,5.80
2023-03-17T02:38:36.746Z,5.95
2023-03-17T02:41:03.820Z,5.95
2023-03-17T02:43:30.896Z,6.05
2023-03-17T02:45:58.048Z,5.43
2023-03-17T02:48:25.375Z,6.45
2023-03-17T02:50:52.461Z,5.70
2023-03-17T02:53:19.831Z,5.80
2023-03-17T02:55:46.834Z,5.65
2023-03-17T02:58:13.884Z,5.80
2023-03-17T03:00:41.656Z,5.70
2023-03-17T03:03:09.331Z,5.60
2023-03-17T03:05:36.535Z,5.22
2023-03-17T03:08:03.617Z,5.50
2023-03-17T03:10:31.323Z,6.03
2023-03-17T03:12:58.749Z,5.20
2023-03-17T03:15:25.912Z,6.07
2023-03-17T03:17:53.194Z,5.60
2023-03-17T03:20:20.971Z,6.25
2023-03-17T03:22:48.229Z,6.07
2023-03-17T03:25:16.219Z,5.45
2023-03-17T03:27:43.319Z,5.78
2023-03-17T03:30:11.670Z,6.13
2023-03-17T03:32:38.882Z,5.82
2023-03-17T03:35:06.579Z,6.00
2023-03-17T03:37:33.909Z,5.82
2023-03-17T03:40:02.080Z,6.00
2023-03-17T03:42:29.312Z,5.72
2023-03-17T03:44:56.548Z,5.72
2023-03-17T03:47:23.686Z,6.30
2023-03-17T03:49:50.797Z,6.28
2023-03-17T03:52:17.947Z,5.75
2023-03-17T03:54:45.243Z,6.40
2023-03-17T03:57:12.428Z,6.15
2023-03-17T03:59:39.541Z,6.07
2023-03-17T04:02:09.640Z,6.13
2023-03-17T04:04:37.093Z,6.07
2023-03-17T04:07:04.242Z,6.38
2023-03-17T04:09:31.496Z,6.22
2023-03-17T04:11:58.637Z,6.47
2023-03-17T04:14:25.892Z,6.70
2023-03-17T04:16:52.897Z,6.35
2023-03-17T04:19:21.550Z,6.47
2023-03-17T04:21:49.218Z,6.47
2023-03-17T04:24:16.339Z,7.35
2023-03-17T04:26:46.370Z,6.18
2023-03-17T04:29:15.730Z,6.90
2023-03-17T04:34:14.724Z,6.03
2023-03-17T04:36:42.448Z,6.82
2023-03-17T04:39:09.732Z,5.78
2023-03-17T04:41:36.894Z,6.20
2023-03-17T04:44:04.149Z,6.25
2023-03-17T04:46:31.298Z,6.10
2023-03-17T04:48:58.371Z,6.07
2023-03-17T04:51:27.088Z,6.22
2023-03-17T04:53:54.231Z,6.72
2023-03-17T04:56:21.795Z,6.85
2023-03-17T04:58:49.056Z,6.65
2023-03-17T05:01:16.630Z,6.25
2023-03-17T05:03:43.967Z,6.65
2023-03-17T05:06:11.364Z,6.50
2023-03-17T05:08:38.512Z,6.18
2023-03-17T05:11:05.723Z,6.50
2023-03-17T05:13:32.910Z,6.07
2023-03-17T05:16:01.683Z,5.55
2023-03-17T05:18:29.150Z,5.80
2023-03-17T05:20:56.217Z,6.22
2023-03-17T05:23:23.615Z,6.22
2023-03-17T05:25:51.050Z,6.65
2023-03-17T05:28:18.357Z,6.15
2023-03-17T05:30:45.971Z,6.20
2023-03-17T05:33:14.589Z,6.25
2023-03-17T05:35:41.848Z,6.27
2023-03-17T05:38:09.358Z,6.65
2023-03-17T05:40:37.008Z,6.47
2023-03-17T05:43:04.936Z,6.65
2023-03-17T05:45:33.802Z,6.28
2023-03-17T05:48:00.828Z,5.93
2023-03-17T05:50:28.072Z,6.18
2023-03-17T05:52:55.198Z,6.78
2023-03-17T05:55:22.482Z,6.57
2023-03-17T05:57:49.730Z,6.43
2023-03-17T06:00:24.851Z,6.32
2023-03-17T06:02:52.034Z,6.10
2023-03-17T06:05:19.167Z,6.63
2023-03-17T06:07:54.035Z,6.38
2023-03-17T06:10:23.743Z,6.72
2023-03-17T06:12:51.015Z,5.95
2023-03-17T16:07:20.602Z,2.88
2023-03-17T16:09:48.073Z,3.30
2023-03-17T16:12:15.419Z,2.55
2023-03-17T16:14:43.311Z,3.00
2023-03-17T16:17:22.241Z,3.13
2023-03-17T16:19:50.041Z,2.75
2023-03-17T16:22:39.397Z,2.70
2023-03-17T16:25:29.444Z,3.15
2023-03-17T16:27:58.376Z,3.40
2023-03-17T16:30:28.507Z,4.10
